CheckWX is a tool to help pilots better visualize weather data.  It is not intended as a substitute for an official pre-flight weather briefing.

02:58:30 UTC

FQCH METAR
Chimoio Airport
Chimoio, Mozambique
Current

4 hours ago

FQCH 232300Z 18006KT 9999 SCT008 BKN015 19/19 Q1021
Observed
Mar-23 @ 23:00 UTC
Wind
  • 180° at 6 KTS
Visibility
10,000+ meters
Flight Rules
MVFR
Cloud Levels
  • Scattered at 800' AGL
  • Broken at 1,500' AGL
Temperature
19°C / 66°F
Dewpoint
19°C / 66°F
Humidity
100%
Altimeter
30.15" Hg
Pressure
1020.92 hPa
Previous

5 hours ago

FQCH 232200Z 15006KT 9999 SCT007 BKN015 19/19 Q1021
Observed
Mar-23 @ 22:00 UTC
Wind
  • 150° at 6 KTS
Visibility
10,000+ meters
Flight Rules
MVFR
Cloud Levels
  • Scattered at 700' AGL
  • Broken at 1,500' AGL
Temperature
19°C / 66°F
Dewpoint
19°C / 66°F
Humidity
100%
Altimeter
30.15" Hg
Pressure
1020.92 hPa
Previous

6 hours ago

FQCH 232100Z 16008KT 9999 SCT007 BKN015 19/19 Q1021
Observed
Mar-23 @ 21:00 UTC
Wind
  • 160° at 8 KTS
Visibility
10,000+ meters
Flight Rules
MVFR
Cloud Levels
  • Scattered at 700' AGL
  • Broken at 1,500' AGL
Temperature
19°C / 66°F
Dewpoint
19°C / 66°F
Humidity
100%
Altimeter
30.15" Hg
Pressure
1020.92 hPa